Taranto — V2AK2 — position and weather

sailwx.info

Track history (hours):
 
Tides and Currents Weather Stations Pressure Air Temp Water Temp Dewpoint Dewpoint Depression Visibility Wind Speed Wind Dir Waves Ship Positions

Taranto

Last reported at 2015-Dec-18 10:29 UTC. Time now 2016-Aug-25 04:31 UTC.
Position N 54°36' W 001°09'.
Warning: this ship's position is months out of date.

Length 88 m; draft 3.3 m.

Type: Cargo ship. MMSI: 304010614.

Date/timePositionNaut miles runAvg speedWind from/ knotsBaromVisibWave heightAir tempDewpointWater temp
2015-Dec-18 10:29N 54°36' W 001°09'0 0.0
2015-Dec-18 08:32N 54°36' W 001°09'0 0.0
2015-Dec-18 06:23N 54°36' W 001°09'0 0.0
2015-Dec-18 03:26N 54°36' W 001°09'0 0.0
2015-Dec-18 01:26N 54°36' W 001°09'0 0.0
2015-Dec-18 00:32N 54°36' W 001°09'0 0.0
2015-Dec-17 23:29N 54°36' W 001°09'0 0.0
2015-Dec-17 22:33N 54°36' W 001°09'2 2.2
2015-Dec-17 21:33N 54°38' W 001°09'6 5.8
2015-Dec-17 20:33N 54°44' W 001°08'6 0.1
2015-Dec-16 05:31N 54°48' W 001°14'5 5.2
2015-Dec-16 04:33N 54°45' W 001°07'5 5.4
2015-Dec-16 03:32N 54°42' W 000°59'6 6.0
2015-Dec-16 02:33N 54°39' W 000°51'1111.5
2015-Dec-16 01:33N 54°32' W 000°35'10 9.9
2015-Dec-16 00:33N 54°25' W 000°23'1111.4
2015-Dec-15 23:33N 54°16' W 000°12'1211.6
2015-Dec-15 22:33N 54°06' W 000°00'65 9.3
2015-Dec-15 15:33N 53°09' E 000°54'1211.9
2015-Dec-15 14:33N 53°02' E 001°09'1212.1
2015-Dec-15 13:33N 52°57' E 001°27'1110.6
2015-Dec-15 12:33N 52°50' E 001°41'103 9.2
2015-Dec-15 01:21N 51°31' E 003°27'6 8.2
2015-Dec-15 00:33N 51°26' E 003°35'7 7.1
2015-Dec-14 23:33N 51°22' E 003°44'4 3.9
2015-Dec-14 22:33N 51°20' E 003°49'5 4.8
2015-Dec-14 21:34N 51°15' E 003°49'4 4.4
2015-Dec-14 20:33N 51°11' E 003°48'0 0.0
2015-Dec-14 19:33N 51°11' E 003°48'0 0.0
2015-Dec-14 18:33N 51°11' E 003°48'0 0.0
2015-Dec-14 17:33N 51°11' E 003°48'0 0.0
2015-Dec-14 16:32N 51°11' E 003°48'0 0.0
2015-Dec-14 15:29N 51°11' E 003°48'0 0.0
2015-Dec-14 14:30N 51°11' E 003°48'0 0.0
2015-Dec-14 13:33N 51°11' E 003°48'0 0.0
2015-Dec-14 12:30N 51°11' E 003°48'0 0.0
2015-Dec-14 11:30N 51°11' E 003°48'0 0.0
2015-Dec-14 10:33N 51°11' E 003°48'0 0.0
2015-Dec-14 08:30N 51°11' E 003°48'0 0.0
2015-Dec-14 07:30N 51°11' E 003°48'0 0.0
2015-Dec-14 06:18N 51°11' E 003°48'0 0.0
2015-Dec-14 05:29N 51°11' E 003°48'0 0.0
2015-Dec-14 04:29N 51°11' E 003°48'0 0.0
2015-Dec-14 03:30N 51°11' E 003°48'0 0.0
2015-Dec-14 02:30N 51°11' E 003°48'0 0.0
2015-Dec-14 01:29N 51°11' E 003°48'0 0.0
2015-Dec-14 00:23N 51°11' E 003°48'0 0.0
2015-Dec-13 23:33N 51°11' E 003°48'0 0.0
2015-Dec-13 22:30N 51°11' E 003°48'0 0.0
2015-Dec-13 21:30N 51°11' E 003°48'0 0.0
2015-Dec-13 20:30N 51°11' E 003°48'0 0.0
2015-Dec-13 19:33N 51°11' E 003°48'0 0.0
2015-Dec-13 18:29N 51°11' E 003°48'0 0.0
2015-Dec-13 17:33N 51°11' E 003°48'0 0.0
2015-Dec-13 16:27N 51°11' E 003°48'0 0.0
2015-Dec-13 15:33N 51°11' E 003°48'0 0.0
2015-Dec-13 14:29N 51°11' E 003°48'0 0.0
2015-Dec-13 13:33N 51°11' E 003°48'0 0.0
2015-Dec-13 12:33N 51°11' E 003°48'0 0.0
2015-Dec-13 11:33N 51°11' E 003°48'0 0.0
2015-Dec-13 10:30N 51°11' E 003°48'0 0.0
2015-Dec-13 09:33N 51°11' E 003°48'0 0.0
2015-Dec-13 08:33N 51°11' E 003°48'0 0.0
2015-Dec-13 07:33N 51°11' E 003°48'0 0.0
2015-Dec-13 06:33N 51°11' E 003°48'0 0.0
2015-Dec-13 05:30N 51°11' E 003°48'0 0.0
2015-Dec-13 04:29N 51°11' E 003°48'0 0.0
2015-Dec-13 03:33N 51°11' E 003°48'0 0.0
2015-Dec-13 02:18N 51°11' E 003°48'0 0.0
2015-Dec-13 01:29N 51°11' E 003°48'0 0.0
2015-Dec-13 00:27N 51°11' E 003°48'0 0.0
2015-Dec-12 23:30N 51°11' E 003°48'0 0.0
2015-Dec-12 22:34N 51°11' E 003°48'0 0.0
2015-Dec-12 21:33N 51°11' E 003°48'0 0.0
2015-Dec-12 20:33N 51°11' E 003°48'0 0.0
2015-Dec-12 19:33N 51°11' E 003°48'0 0.0
2015-Dec-12 18:34N 51°11' E 003°48'0 0.0
2015-Dec-12 17:33N 51°11' E 003°48'0 0.0
2015-Dec-12 16:34N 51°11' E 003°48'0 0.0
2015-Dec-12 15:33N 51°11' E 003°48'3 3.0
2015-Dec-12 14:30N 51°14' E 003°48'6 6.4
2015-Dec-12 13:33N 51°20' E 003°49'10 9.9
2015-Dec-12 12:33N 51°26' E 003°36'1611.2
2015-Dec-12 11:10N 51°38' E 003°20'94 9.6
2015-Dec-12 01:18N 52°50' E 001°42'6 8.4
2015-Dec-12 00:33N 52°54' E 001°33'9 8.7
2015-Dec-11 23:33N 52°58' E 001°21'1010.0
2015-Dec-11 22:33N 53°02' E 001°05'1010.4
2015-Dec-11 21:33N 53°09' E 000°53'3310.7
2015-Dec-11 18:26N 53°33' E 000°13'9 9.8
2015-Dec-11 17:33N 53°35' W 000°01'9 8.7
2015-Dec-11 16:33N 53°41' W 000°12'5 4.4
2015-Dec-11 15:31N 53°45' W 000°16'0 0.4
2015-Dec-11 14:31N 53°45' W 000°15'0 0.0
2015-Dec-11 13:28N 53°45' W 000°15'0 0.0
2015-Dec-11 12:34N 53°44' W 000°15'0 0.0
2015-Dec-11 11:33N 53°44' W 000°15'0 0.0
2015-Dec-11 10:33N 53°45' W 000°15'0 0.0
2015-Dec-11 09:33N 53°45' W 000°15'0 0.0
2015-Dec-11 08:34N 53°45' W 000°15'0 0.0
2015-Dec-11 07:34N 53°45' W 000°15'0 0.0
2015-Dec-11 06:34N 53°45' W 000°15'0 0.0
2015-Dec-11 05:33N 53°45' W 000°15'0 0.0
2015-Dec-11 04:33N 53°45' W 000°15'0 0.0
2015-Dec-11 03:34N 53°44' W 000°16'0 0.0
2015-Dec-11 02:33N 53°45' W 000°15'0 0.0
2015-Dec-11 01:34N 53°45' W 000°15'1 0.6
2015-Dec-11 00:34N 53°44' W 000°16'7 7.2
2015-Dec-10 23:33N 53°38' W 000°10'7 7.2
2015-Dec-10 22:33N 53°35' E 000°01'7 7.0
2015-Dec-10 21:33N 53°33' E 000°13'30 8.7
2015-Dec-10 18:09N 53°12' E 000°48'5 8.1
2015-Dec-10 17:29N 53°09' E 000°55'9 8.2
2015-Dec-10 16:21N 53°03' E 001°06'7 8.6
2015-Dec-10 15:33N 52°59' E 001°16'10 9.6
2015-Dec-10 14:33N 52°55' E 001°31'124 7.7
2015-Dec-09 22:29N 51°22' E 003°45'3 3.7
2015-Dec-09 21:33N 51°20' E 003°49'7 6.2
2015-Dec-09 20:23N 51°13' E 003°48'2 2.5
2015-Dec-09 19:31N 51°11' E 003°48'0 0.0
2015-Dec-09 18:31N 51°11' E 003°48'0 0.0
2015-Dec-09 17:31N 51°11' E 003°48'0 0.0
2015-Dec-09 16:28N 51°11' E 003°48'0 0.0
2015-Dec-09 15:28N 51°11' E 003°48'0 0.0
2015-Dec-09 14:28N 51°11' E 003°48'0 0.0
2015-Dec-09 13:28N 51°11' E 003°48'0 0.0
2015-Dec-09 12:25N 51°11' E 003°48'0 0.0
2015-Dec-09 11:28N 51°11' E 003°48'0 0.0
2015-Dec-09 10:25N 51°11' E 003°48'0 0.0
2015-Dec-09 09:28N 51°11' E 003°48'0 0.0
2015-Dec-09 08:16N 51°11' E 003°48'0 0.0
2015-Dec-09 07:19N 51°11' E 003°48'0 0.0
2015-Dec-09 06:28N 51°11' E 003°48'0 0.0
2015-Dec-09 05:31N 51°11' E 003°48'1 0.8
2015-Dec-09 04:32N 51°10' E 003°47'0 0.0
2015-Dec-09 03:29N 51°10' E 003°47'0 0.0
2015-Dec-09 02:29N 51°10' E 003°47'0 0.0
2015-Dec-09 01:29N 51°10' E 003°47'0 0.0
2015-Dec-09 00:29N 51°10' E 003°47'0 0.0
2015-Dec-08 23:32N 51°10' E 003°47'0 0.0
2015-Dec-08 22:32N 51°10' E 003°47'0 0.0
2015-Dec-08 21:32N 51°10' E 003°47'0 0.0
2015-Dec-08 20:32N 51°10' E 003°47'0 0.0
2015-Dec-08 19:32N 51°10' E 003°47'0 0.4
2015-Dec-08 18:33N 51°10' E 003°48'9 7.0
2015-Dec-08 17:19N 51°19' E 003°50'1 1.3
2015-Dec-08 16:33N 51°20' E 003°49'6 6.2
2015-Dec-08 15:33N 51°24' E 003°42'7 7.1
2015-Dec-08 14:33N 51°27' E 003°31'  
Track history (hours):
 
Tides and Currents Weather Stations Pressure Air Temp Water Temp Dewpoint Dewpoint Depression Visibility Wind Speed Wind Dir Waves Ship Positions

Taranto

Last reported at 2015-Dec-18 10:29 UTC. Time now 2016-Aug-25 04:31 UTC.
Position N 54°36' W 001°09'.
Warning: this ship's position is months out of date.

Length 88 m; draft 3.3 m.

Type: Cargo ship. MMSI: 304010614.

Date/timePositionNaut miles runAvg speedWind from/ knotsBaromVisibWave heightAir tempDewpointWater temp
2015-Dec-18 10:29N 54°36' W 001°09'0 0.0
2015-Dec-18 08:32N 54°36' W 001°09'0 0.0
2015-Dec-18 06:23N 54°36' W 001°09'0 0.0
2015-Dec-18 03:26N 54°36' W 001°09'0 0.0
2015-Dec-18 01:26N 54°36' W 001°09'0 0.0
2015-Dec-18 00:32N 54°36' W 001°09'0 0.0
2015-Dec-17 23:29N 54°36' W 001°09'0 0.0
2015-Dec-17 22:33N 54°36' W 001°09'2 2.2
2015-Dec-17 21:33N 54°38' W 001°09'6 5.8
2015-Dec-17 20:33N 54°44' W 001°08'6 0.1
2015-Dec-16 05:31N 54°48' W 001°14'5 5.2
2015-Dec-16 04:33N 54°45' W 001°07'5 5.4
2015-Dec-16 03:32N 54°42' W 000°59'6 6.0
2015-Dec-16 02:33N 54°39' W 000°51'1111.5
2015-Dec-16 01:33N 54°32' W 000°35'10 9.9
2015-Dec-16 00:33N 54°25' W 000°23'1111.4
2015-Dec-15 23:33N 54°16' W 000°12'1211.6
2015-Dec-15 22:33N 54°06' W 000°00'65 9.3
2015-Dec-15 15:33N 53°09' E 000°54'1211.9
2015-Dec-15 14:33N 53°02' E 001°09'1212.1
2015-Dec-15 13:33N 52°57' E 001°27'1110.6
2015-Dec-15 12:33N 52°50' E 001°41'103 9.2
2015-Dec-15 01:21N 51°31' E 003°27'6 8.2
2015-Dec-15 00:33N 51°26' E 003°35'7 7.1
2015-Dec-14 23:33N 51°22' E 003°44'4 3.9
2015-Dec-14 22:33N 51°20' E 003°49'5 4.8
2015-Dec-14 21:34N 51°15' E 003°49'4 4.4
2015-Dec-14 20:33N 51°11' E 003°48'0 0.0
2015-Dec-14 19:33N 51°11' E 003°48'0 0.0
2015-Dec-14 18:33N 51°11' E 003°48'0 0.0
2015-Dec-14 17:33N 51°11' E 003°48'0 0.0
2015-Dec-14 16:32N 51°11' E 003°48'0 0.0
2015-Dec-14 15:29N 51°11' E 003°48'0 0.0
2015-Dec-14 14:30N 51°11' E 003°48'0 0.0
2015-Dec-14 13:33N 51°11' E 003°48'0 0.0
2015-Dec-14 12:30N 51°11' E 003°48'0 0.0
2015-Dec-14 11:30N 51°11' E 003°48'0 0.0
2015-Dec-14 10:33N 51°11' E 003°48'0 0.0
2015-Dec-14 08:30N 51°11' E 003°48'0 0.0
2015-Dec-14 07:30N 51°11' E 003°48'0 0.0
2015-Dec-14 06:18N 51°11' E 003°48'0 0.0
2015-Dec-14 05:29N 51°11' E 003°48'0 0.0
2015-Dec-14 04:29N 51°11' E 003°48'0 0.0
2015-Dec-14 03:30N 51°11' E 003°48'0 0.0
2015-Dec-14 02:30N 51°11' E 003°48'0 0.0
2015-Dec-14 01:29N 51°11' E 003°48'0 0.0
2015-Dec-14 00:23N 51°11' E 003°48'0 0.0
2015-Dec-13 23:33N 51°11' E 003°48'0 0.0
2015-Dec-13 22:30N 51°11' E 003°48'0 0.0
2015-Dec-13 21:30N 51°11' E 003°48'0 0.0
2015-Dec-13 20:30N 51°11' E 003°48'0 0.0
2015-Dec-13 19:33N 51°11' E 003°48'0 0.0
2015-Dec-13 18:29N 51°11' E 003°48'0 0.0
2015-Dec-13 17:33N 51°11' E 003°48'0 0.0
2015-Dec-13 16:27N 51°11' E 003°48'0 0.0
2015-Dec-13 15:33N 51°11' E 003°48'0 0.0
2015-Dec-13 14:29N 51°11' E 003°48'0 0.0
2015-Dec-13 13:33N 51°11' E 003°48'0 0.0
2015-Dec-13 12:33N 51°11' E 003°48'0 0.0
2015-Dec-13 11:33N 51°11' E 003°48'0 0.0
2015-Dec-13 10:30N 51°11' E 003°48'0 0.0
2015-Dec-13 09:33N 51°11' E 003°48'0 0.0
2015-Dec-13 08:33N 51°11' E 003°48'0 0.0
2015-Dec-13 07:33N 51°11' E 003°48'0 0.0
2015-Dec-13 06:33N 51°11' E 003°48'0 0.0
2015-Dec-13 05:30N 51°11' E 003°48'0 0.0
2015-Dec-13 04:29N 51°11' E 003°48'0 0.0
2015-Dec-13 03:33N 51°11' E 003°48'0 0.0
2015-Dec-13 02:18N 51°11' E 003°48'0 0.0
2015-Dec-13 01:29N 51°11' E 003°48'0 0.0
2015-Dec-13 00:27N 51°11' E 003°48'0 0.0
2015-Dec-12 23:30N 51°11' E 003°48'0 0.0
2015-Dec-12 22:34N 51°11' E 003°48'0 0.0
2015-Dec-12 21:33N 51°11' E 003°48'0 0.0
2015-Dec-12 20:33N 51°11' E 003°48'0 0.0
2015-Dec-12 19:33N 51°11' E 003°48'0 0.0
2015-Dec-12 18:34N 51°11' E 003°48'0 0.0
2015-Dec-12 17:33N 51°11' E 003°48'0 0.0
2015-Dec-12 16:34N 51°11' E 003°48'0 0.0
2015-Dec-12 15:33N 51°11' E 003°48'3 3.0
2015-Dec-12 14:30N 51°14' E 003°48'6 6.4
2015-Dec-12 13:33N 51°20' E 003°49'10 9.9
2015-Dec-12 12:33N 51°26' E 003°36'1611.2
2015-Dec-12 11:10N 51°38' E 003°20'94 9.6
2015-Dec-12 01:18N 52°50' E 001°42'6 8.4
2015-Dec-12 00:33N 52°54' E 001°33'9 8.7
2015-Dec-11 23:33N 52°58' E 001°21'1010.0
2015-Dec-11 22:33N 53°02' E 001°05'1010.4
2015-Dec-11 21:33N 53°09' E 000°53'3310.7
2015-Dec-11 18:26N 53°33' E 000°13'9 9.8
2015-Dec-11 17:33N 53°35' W 000°01'9 8.7
2015-Dec-11 16:33N 53°41' W 000°12'5 4.4
2015-Dec-11 15:31N 53°45' W 000°16'0 0.4
2015-Dec-11 14:31N 53°45' W 000°15'0 0.0
2015-Dec-11 13:28N 53°45' W 000°15'0 0.0
2015-Dec-11 12:34N 53°44' W 000°15'0 0.0
2015-Dec-11 11:33N 53°44' W 000°15'0 0.0
2015-Dec-11 10:33N 53°45' W 000°15'0 0.0
2015-Dec-11 09:33N 53°45' W 000°15'0 0.0
2015-Dec-11 08:34N 53°45' W 000°15'0 0.0
2015-Dec-11 07:34N 53°45' W 000°15'0 0.0
2015-Dec-11 06:34N 53°45' W 000°15'0 0.0
2015-Dec-11 05:33N 53°45' W 000°15'0 0.0
2015-Dec-11 04:33N 53°45' W 000°15'0 0.0
2015-Dec-11 03:34N 53°44' W 000°16'0 0.0
2015-Dec-11 02:33N 53°45' W 000°15'0 0.0
2015-Dec-11 01:34N 53°45' W 000°15'1 0.6
2015-Dec-11 00:34N 53°44' W 000°16'7 7.2
2015-Dec-10 23:33N 53°38' W 000°10'7 7.2
2015-Dec-10 22:33N 53°35' E 000°01'7 7.0
2015-Dec-10 21:33N 53°33' E 000°13'30 8.7
2015-Dec-10 18:09N 53°12' E 000°48'5 8.1
2015-Dec-10 17:29N 53°09' E 000°55'9 8.2
2015-Dec-10 16:21N 53°03' E 001°06'7 8.6
2015-Dec-10 15:33N 52°59' E 001°16'10 9.6
2015-Dec-10 14:33N 52°55' E 001°31'124 7.7
2015-Dec-09 22:29N 51°22' E 003°45'3 3.7
2015-Dec-09 21:33N 51°20' E 003°49'7 6.2
2015-Dec-09 20:23N 51°13' E 003°48'2 2.5
2015-Dec-09 19:31N 51°11' E 003°48'0 0.0
2015-Dec-09 18:31N 51°11' E 003°48'0 0.0
2015-Dec-09 17:31N 51°11' E 003°48'0 0.0
2015-Dec-09 16:28N 51°11' E 003°48'0 0.0
2015-Dec-09 15:28N 51°11' E 003°48'0 0.0
2015-Dec-09 14:28N 51°11' E 003°48'0 0.0
2015-Dec-09 13:28N 51°11' E 003°48'0 0.0
2015-Dec-09 12:25N 51°11' E 003°48'0 0.0
2015-Dec-09 11:28N 51°11' E 003°48'0 0.0
2015-Dec-09 10:25N 51°11' E 003°48'0 0.0
2015-Dec-09 09:28N 51°11' E 003°48'0 0.0
2015-Dec-09 08:16N 51°11' E 003°48'0 0.0
2015-Dec-09 07:19N 51°11' E 003°48'0 0.0
2015-Dec-09 06:28N 51°11' E 003°48'0 0.0
2015-Dec-09 05:31N 51°11' E 003°48'1 0.8
2015-Dec-09 04:32N 51°10' E 003°47'0 0.0
2015-Dec-09 03:29N 51°10' E 003°47'0 0.0
2015-Dec-09 02:29N 51°10' E 003°47'0 0.0
2015-Dec-09 01:29N 51°10' E 003°47'0 0.0
2015-Dec-09 00:29N 51°10' E 003°47'0 0.0
2015-Dec-08 23:32N 51°10' E 003°47'0 0.0
2015-Dec-08 22:32N 51°10' E 003°47'0 0.0
2015-Dec-08 21:32N 51°10' E 003°47'0 0.0
2015-Dec-08 20:32N 51°10' E 003°47'0 0.0
2015-Dec-08 19:32N 51°10' E 003°47'0 0.4
2015-Dec-08 18:33N 51°10' E 003°48'9 7.0
2015-Dec-08 17:19N 51°19' E 003°50'1 1.3
2015-Dec-08 16:33N 51°20' E 003°49'6 6.2
2015-Dec-08 15:33N 51°24' E 003°42'7 7.1
2015-Dec-08 14:33N 51°27' E 003°31'  

Dump ship's entire track history